首页
METAR-TAF:

METAR-TAF

机场 :

里耶卡, 克罗地亚

纬度: 45-13N, 经度: 014-35E, 海拔: 85米

当前天气观测

该预报发布于18分钟前的07:00 UTC
风速7节,风向
温度 24°C
湿度 61%
气压 1012 hPa
能见度10公里或以上
少量云层高于5000英尺

METAR: LDRI 150700Z 36007KT 9999 FEW050 24/16 Q1012

时间: 09:18 (07:18 UTC)

预报

该预报发布于1小时和53分钟前的05:25 UTC
预报有效从15日的 06点(UTC)到 16日的 06点(UTC)
风速2节,风向多变
能见度10公里或以上
散云层高于4000英尺
几率 30% :
短暂存在
从 15日的 10点(UTC)到 15日的 17点(UTC)
少量云层高于4000英尺, 积雨云.
雷暴, 雨

TAF: LDRI 150525Z 1506/1606 VRB02KT 9999 SCT040 TX28/1512Z TN20/1603Z PROB30 TEMPO 1510/1517 TSRA FEW040CB

超过4000个机场的气象观测和天气预报(METAR&TAF报告)。

可查询的气象台以黄色和红色小点在地图上表示。

将鼠标移到小点上方,可查看气象台名称。

然后点击查看天气观测和预报。

如需切换地图:点击带黑十字的绿色按钮放大地图;点击带横线的绿色按钮缩小地图;或者点击绿色箭头查看邻近地区的地图。


METAR-TAF: